Time;durP1;ratioP1;P1;durP2;ratioP2;P2;SDS_P1;SDS_P2;PMS_P1;PMS_P2;Temp;Humidity;BMP_temperature;BMP_pressure;BME280_temperature;BME280_humidity;BME280_pressure;Samples;Min_cycle;Max_cycle;Signal;HPM_P1;HPM_P2
2022/09/23 00:01:16;;;;;;;;;;;10.50;99.90;;;;;;4969794;28;19937;-78
2022/09/23 00:03:45;;;;;;;;;;;10.50;99.90;;;;;;4970592;28;19922;-78
2022/09/23 00:06:12;;;;;;;;;;;10.40;99.90;;;;;;4970734;28;20332;-78
2022/09/23 00:08:38;;;;;;;;;;;10.40;99.90;;;;;;4970408;28;20400;-78
2022/09/23 00:11:11;;;;;;;;;;;10.40;99.90;;;;;;4970434;28;19926;-78
2022/09/23 00:13:37;;;;;;;;;;;10.40;99.90;;;;;;4970563;28;20292;-78
2022/09/23 00:16:04;;;;;;;;;;;10.40;99.90;;;;;;4969964;28;20255;-78
2022/09/23 00:18:30;;;;;;;;;;;10.40;99.90;;;;;;4970726;28;19935;-80
2022/09/23 00:20:55;;;;;;;;;;;10.40;99.90;;;;;;4971122;28;19930;-78
2022/09/23 00:23:21;;;;;;;;;;;10.40;99.90;;;;;;4970832;28;19926;-78
2022/09/23 00:25:54;;;;;;;;;;;10.40;99.90;;;;;;4970249;28;20297;-78
2022/09/23 00:28:20;;;;;;;;;;;10.30;99.90;;;;;;4970494;28;19937;-78
2022/09/23 00:30:45;;;;;;;;;;;10.40;99.90;;;;;;4968564;28;20516;-79
2022/09/23 00:33:11;;;;;;;;;;;10.30;99.90;;;;;;4970689;28;19973;-78
2022/09/23 00:35:37;;;;;;;;;;;10.30;99.90;;;;;;4970306;28;19930;-78
2022/09/23 00:38:03;;;;;;;;;;;10.30;99.90;;;;;;4970550;28;19926;-78
2022/09/23 00:40:28;;;;;;;;;;;10.30;99.90;;;;;;4970539;28;20345;-78
2022/09/23 00:42:53;;;;;;;;;;;10.30;99.90;;;;;;4969549;28;19985;-78
2022/09/23 00:45:19;;;;;;;;;;;10.20;99.90;;;;;;4970306;28;19930;-78
2022/09/23 00:47:47;;;;;;;;;;;10.30;99.90;;;;;;4969023;28;19926;-78
2022/09/23 00:50:25;;;;;;;;;;;10.30;99.90;;;;;;4970146;28;19977;-78
2022/09/23 00:52:51;;;;;;;;;;;10.30;99.90;;;;;;4969604;28;19934;-78
2022/09/23 00:55:24;;;;;;;;;;;10.30;99.90;;;;;;4970290;28;20360;-78
2022/09/23 00:57:50;;;;;;;;;;;10.30;99.90;;;;;;4969347;28;20502;-78
2022/09/23 01:00:16;;;;;;;;;;;10.30;99.90;;;;;;4970145;28;19926;-78
2022/09/23 01:02:41;;;;;;;;;;;10.30;99.90;;;;;;4968646;28;19945;-78
2022/09/23 01:05:07;;;;;;;;;;;10.30;99.90;;;;;;4970305;28;19949;-78
2022/09/23 01:07:33;;;;;;;;;;;10.30;99.90;;;;;;4969196;28;19922;-78
2022/09/23 01:09:59;;;;;;;;;;;10.30;99.90;;;;;;4970128;28;19926;-78
2022/09/23 01:12:34;;;;;;;;;;;10.30;99.90;;;;;;4984202;28;20084;-78
2022/09/23 01:15:09;;;;;;;;;;;10.30;99.90;;;;;;4953579;28;19937;-80
2022/09/23 01:17:50;;;;;;;;;;;10.30;99.90;;;;;;4965796;28;19980;-78
2022/09/23 01:20:18;;;;;;;;;;;10.20;99.90;;;;;;4964102;28;19980;-78
2022/09/23 01:22:54;;;;;;;;;;;10.30;99.90;;;;;;4969031;28;20022;-78
2022/09/23 01:25:39;;;;;;;;;;;10.30;99.90;;;;;;4969585;28;19930;-78
2022/09/23 01:28:24;;;;;;;;;;;10.30;99.90;;;;;;4967378;28;19926;-78
2022/09/23 01:31:01;;;;;;;;;;;10.20;99.90;;;;;;4968248;28;19930;-78
2022/09/23 01:33:34;;;;;;;;;;;10.30;99.90;;;;;;4968011;28;19969;-78
2022/09/23 01:36:14;;;;;;;;;;;10.20;99.90;;;;;;4969470;28;19932;-79
2022/09/23 01:38:47;;;;;;;;;;;10.30;99.90;;;;;;4968753;28;19925;-78
2022/09/23 01:41:39;;;;;;;;;;;10.20;99.90;;;;;;4969302;28;19930;-78
2022/09/23 01:44:10;;;;;;;;;;;10.20;99.90;;;;;;4981470;28;19938;-78
2022/09/23 01:46:54;;;;;;;;;;;10.10;99.90;;;;;;4967752;28;19965;-78
2022/09/23 01:49:29;;;;;;;;;;;10.20;99.90;;;;;;4968897;28;19937;-78
2022/09/23 01:52:10;;;;;;;;;;;10.10;99.90;;;;;;4958878;28;20405;-78
2022/09/23 01:54:41;;;;;;;;;;;10.10;99.90;;;;;;4968222;28;19956;-78
2022/09/23 01:57:20;;;;;;;;;;;10.10;99.90;;;;;;4967194;28;19981;-78
2022/09/23 01:59:51;;;;;;;;;;;10.00;99.90;;;;;;4968048;28;19969;-78
2022/09/23 02:02:27;;;;;;;;;;;10.00;99.90;;;;;;4967557;28;20008;-78
2022/09/23 02:04:57;;;;;;;;;;;10.00;99.90;;;;;;4968435;28;20010;-78
2022/09/23 02:07:28;;;;;;;;;;;10.00;99.90;;;;;;4968430;28;19926;-78
2022/09/23 02:10:06;;;;;;;;;;;9.90;99.90;;;;;;4968547;28;19926;-78
2022/09/23 02:12:33;;;;;;;;;;;9.90;99.90;;;;;;4968440;28;19933;-79
2022/09/23 02:15:01;;;;;;;;;;;9.90;99.90;;;;;;4969011;28;19940;-78
2022/09/23 02:17:33;;;;;;;;;;;10.00;99.90;;;;;;4968076;28;19926;-78
2022/09/23 02:20:01;;;;;;;;;;;9.90;99.90;;;;;;4969157;28;19953;-78
2022/09/23 02:22:28;;;;;;;;;;;9.90;99.90;;;;;;4969085;28;19946;-78
2022/09/23 02:24:55;;;;;;;;;;;9.90;99.90;;;;;;4968562;28;19926;-78
2022/09/23 02:27:41;;;;;;;;;;;9.90;99.90;;;;;;4967294;28;20297;-78
2022/09/23 02:30:11;;;;;;;;;;;9.80;99.90;;;;;;4966929;28;19926;-78
2022/09/23 02:32:37;;;;;;;;;;;9.80;99.90;;;;;;4966089;28;19973;-78
2022/09/23 02:35:14;;;;;;;;;;;9.80;99.90;;;;;;4968305;28;19980;-78
2022/09/23 02:37:58;;;;;;;;;;;9.80;99.90;;;;;;4967612;28;20328;-78
2022/09/23 02:40:33;;;;;;;;;;;9.70;99.90;;;;;;4968372;28;19948;-78
2022/09/23 02:42:58;;;;;;;;;;;9.70;99.90;;;;;;4968570;28;20392;-78
2022/09/23 02:45:24;;;;;;;;;;;9.80;99.90;;;;;;4967387;28;19940;-79
2022/09/23 02:47:52;;;;;;;;;;;9.80;99.90;;;;;;4967981;28;19930;-78
2022/09/23 02:50:18;;;;;;;;;;;9.70;99.90;;;;;;4968610;28;19934;-78
2022/09/23 02:52:45;;;;;;;;;;;9.70;99.90;;;;;;4967858;28;20484;-78
2022/09/23 02:55:11;;;;;;;;;;;9.60;99.90;;;;;;4971888;28;20008;-78
2022/09/23 02:57:36;;;;;;;;;;;9.60;99.90;;;;;;4971373;28;20022;-78
2022/09/23 03:00:03;;;;;;;;;;;9.70;99.90;;;;;;4971830;28;20292;-78
2022/09/23 03:02:54;;;;;;;;;;;9.60;99.90;;;;;;4971754;28;19992;-78
2022/09/23 03:05:25;;;;;;;;;;;9.60;99.90;;;;;;4971597;28;19938;-78
2022/09/23 03:08:03;;;;;;;;;;;9.60;99.90;;;;;;4971497;28;19922;-78
2022/09/23 03:10:35;;;;;;;;;;;9.60;99.90;;;;;;4971925;28;20388;-78
2022/09/23 03:13:13;;;;;;;;;;;9.60;99.90;;;;;;4971689;28;19930;-78
2022/09/23 03:15:44;;;;;;;;;;;9.60;99.90;;;;;;4952784;28;19935;-78
2022/09/23 03:18:17;;;;;;;;;;;9.60;99.90;;;;;;4986200;28;19929;-78
2022/09/23 03:20:49;;;;;;;;;;;9.60;99.90;;;;;;4970571;28;19930;-78
2022/09/23 03:23:16;;;;;;;;;;;9.60;99.90;;;;;;4971178;28;20004;-78
2022/09/23 03:25:44;;;;;;;;;;;9.50;99.90;;;;;;4971429;28;20009;-78
2022/09/23 03:28:10;;;;;;;;;;;9.60;99.90;;;;;;4971596;28;19922;-78
2022/09/23 03:30:36;;;;;;;;;;;9.50;99.90;;;;;;4970253;28;19940;-78
2022/09/23 03:33:03;;;;;;;;;;;9.50;99.90;;;;;;4971400;28;19981;-79
2022/09/23 03:35:31;;;;;;;;;;;9.50;99.90;;;;;;4971610;28;19926;-78
2022/09/23 03:38:07;;;;;;;;;;;9.50;99.90;;;;;;4972174;28;19926;-78
2022/09/23 03:40:40;;;;;;;;;;;9.50;99.90;;;;;;4962818;28;19930;-79
2022/09/23 03:43:06;;;;;;;;;;;9.40;99.90;;;;;;4971342;28;20281;-78
2022/09/23 03:45:32;;;;;;;;;;;9.40;99.90;;;;;;4969900;28;19936;-78
2022/09/23 03:47:58;;;;;;;;;;;9.30;99.90;;;;;;4971498;28;20025;-78
2022/09/23 03:50:24;;;;;;;;;;;9.30;99.90;;;;;;4970406;28;20009;-78
2022/09/23 03:52:49;;;;;;;;;;;9.30;99.90;;;;;;4970437;28;20018;-78
2022/09/23 03:55:15;;;;;;;;;;;9.30;99.90;;;;;;4970655;28;20408;-78
2022/09/23 03:57:41;;;;;;;;;;;9.30;99.90;;;;;;4971105;28;19969;-78
2022/09/23 04:00:08;;;;;;;;;;;9.30;99.90;;;;;;4971125;28;20344;-78
2022/09/23 04:02:34;;;;;;;;;;;9.30;99.90;;;;;;4969942;28;19976;-78
2022/09/23 04:05:00;;;;;;;;;;;9.40;99.90;;;;;;4969956;28;19926;-80
2022/09/23 04:07:25;;;;;;;;;;;9.30;99.90;;;;;;4970317;28;20369;-78
2022/09/23 04:09:51;;;;;;;;;;;9.30;99.90;;;;;;4970270;28;19927;-78
2022/09/23 04:12:17;;;;;;;;;;;9.30;99.90;;;;;;4970500;28;19934;-79
2022/09/23 04:14:43;;;;;;;;;;;9.30;99.90;;;;;;4970155;28;20391;-78
2022/09/23 04:17:09;;;;;;;;;;;9.30;99.90;;;;;;4969991;28;19926;-78
2022/09/23 04:19:34;;;;;;;;;;;9.30;99.90;;;;;;4969295;28;19933;-78
2022/09/23 04:22:00;;;;;;;;;;;9.30;99.90;;;;;;4970955;28;19926;-79
2022/09/23 04:24:25;;;;;;;;;;;9.30;99.90;;;;;;4970948;28;19937;-78
2022/09/23 04:26:52;;;;;;;;;;;9.30;99.90;;;;;;4970492;28;20372;-79
2022/09/23 04:29:18;;;;;;;;;;;9.30;99.90;;;;;;4970554;28;19926;-78
2022/09/23 04:31:44;;;;;;;;;;;9.20;99.90;;;;;;4968942;28;19926;-78
2022/09/23 04:34:09;;;;;;;;;;;9.20;99.90;;;;;;4970537;28;19933;-78
2022/09/23 04:36:35;;;;;;;;;;;9.30;99.90;;;;;;4969169;28;19930;-78
2022/09/23 04:39:01;;;;;;;;;;;9.20;99.90;;;;;;4970649;28;19926;-79
2022/09/23 04:41:26;;;;;;;;;;;9.20;99.90;;;;;;4970467;28;19941;-78
2022/09/23 04:43:52;;;;;;;;;;;9.20;99.90;;;;;;4969912;28;19926;-78
2022/09/23 04:46:18;;;;;;;;;;;9.20;99.90;;;;;;4968577;28;20304;-75
2022/09/23 04:48:43;;;;;;;;;;;9.20;99.90;;;;;;4969169;28;19926;-84
2022/09/23 04:51:16;;;;;;;;;;;9.20;99.90;;;;;;4969966;28;19988;-80
2022/09/23 04:53:43;;;;;;;;;;;9.20;99.90;;;;;;4961036;28;19926;-78
2022/09/23 04:56:13;;;;;;;;;;;9.20;99.90;;;;;;4980957;28;20333;-77
2022/09/23 04:58:38;;;;;;;;;;;9.20;99.90;;;;;;4968641;28;19927;-77
2022/09/23 05:01:11;;;;;;;;;;;9.20;99.90;;;;;;4969064;28;19949;-76
2022/09/23 05:03:37;;;;;;;;;;;9.20;99.90;;;;;;4968946;28;19922;-77
2022/09/23 05:06:02;;;;;;;;;;;9.30;99.90;;;;;;4968741;28;19949;-76
2022/09/23 05:08:28;;;;;;;;;;;9.30;99.90;;;;;;4969798;28;19953;-77
2022/09/23 05:10:57;;;;;;;;;;;9.20;99.90;;;;;;4969647;28;19926;-77
2022/09/23 05:13:25;;;;;;;;;;;9.30;99.90;;;;;;4969138;28;20086;-77
2022/09/23 05:16:00;;;;;;;;;;;9.30;99.90;;;;;;4967861;28;19962;-78
2022/09/23 05:18:27;;;;;;;;;;;9.30;99.90;;;;;;4969845;28;19930;-77
2022/09/23 05:20:54;;;;;;;;;;;9.20;99.90;;;;;;4968961;28;19950;-77
2022/09/23 05:23:20;;;;;;;;;;;9.20;99.90;;;;;;4969027;28;19930;-77
2022/09/23 05:25:47;;;;;;;;;;;9.30;99.90;;;;;;4968670;28;20415;-76
2022/09/23 05:28:15;;;;;;;;;;;9.30;99.90;;;;;;4965313;28;20300;-78
2022/09/23 05:30:40;;;;;;;;;;;9.30;99.90;;;;;;4965105;28;19970;-76
2022/09/23 05:33:06;;;;;;;;;;;9.30;99.90;;;;;;4967870;28;20420;-75
2022/09/23 05:35:31;;;;;;;;;;;9.30;99.90;;;;;;4969280;28;19926;-75
2022/09/23 05:37:57;;;;;;;;;;;9.30;99.90;;;;;;4969437;28;19930;-78
2022/09/23 05:40:22;;;;;;;;;;;9.30;99.90;;;;;;4966761;28;19927;-79
2022/09/23 05:42:48;;;;;;;;;;;9.30;99.90;;;;;;4968204;28;19930;-78
2022/09/23 05:45:14;;;;;;;;;;;9.30;99.90;;;;;;4966267;28;19930;-79
2022/09/23 05:47:39;;;;;;;;;;;9.30;99.90;;;;;;4968102;28;19936;-78
2022/09/23 05:50:05;;;;;;;;;;;9.30;99.90;;;;;;4968797;28;19930;-79
2022/09/23 05:52:30;;;;;;;;;;;9.30;99.90;;;;;;4968161;28;20025;-82
2022/09/23 05:54:56;;;;;;;;;;;9.30;99.90;;;;;;4968983;28;19937;-79
2022/09/23 05:57:21;;;;;;;;;;;9.30;99.90;;;;;;4977085;28;19981;-79
2022/09/23 05:59:47;;;;;;;;;;;9.30;99.90;;;;;;4964963;28;19933;-82
2022/09/23 06:02:13;;;;;;;;;;;9.40;99.90;;;;;;4968000;28;20013;-80
2022/09/23 06:04:39;;;;;;;;;;;9.40;99.90;;;;;;4967998;28;20001;-80
2022/09/23 06:07:04;;;;;;;;;;;9.50;99.90;;;;;;4950043;28;19961;-84
2022/09/23 06:09:30;;;;;;;;;;;9.50;99.90;;;;;;4967151;28;20037;-81
2022/09/23 06:11:56;;;;;;;;;;;9.50;99.90;;;;;;4967539;28;20377;-82
2022/09/23 06:14:21;;;;;;;;;;;9.50;99.90;;;;;;4967968;28;19934;-80
2022/09/23 06:16:47;;;;;;;;;;;9.60;99.90;;;;;;4966708;28;19926;-80
2022/09/23 06:19:12;;;;;;;;;;;9.60;99.90;;;;;;4967956;28;20389;-83
2022/09/23 06:21:39;;;;;;;;;;;9.60;99.90;;;;;;4968314;28;20029;-85
2022/09/23 06:24:05;;;;;;;;;;;9.60;99.90;;;;;;4967371;28;19926;-79
2022/09/23 06:26:33;;;;;;;;;;;9.60;99.90;;;;;;4967883;28;19926;-80
2022/09/23 06:29:00;;;;;;;;;;;9.70;99.90;;;;;;4966334;28;20385;-79
2022/09/23 06:31:26;;;;;;;;;;;9.70;99.90;;;;;;4967464;28;19930;-83
2022/09/23 06:33:51;;;;;;;;;;;9.70;99.90;;;;;;4968019;28;19981;-83
2022/09/23 06:36:17;;;;;;;;;;;9.80;99.90;;;;;;4967634;28;20030;-82
2022/09/23 06:38:43;;;;;;;;;;;9.80;99.90;;;;;;4966890;28;20388;-83
2022/09/23 06:41:09;;;;;;;;;;;9.90;99.90;;;;;;4973725;28;19928;-80
2022/09/23 06:43:35;;;;;;;;;;;9.90;99.90;;;;;;4967840;28;19984;-80
2022/09/23 06:46:02;;;;;;;;;;;10.00;99.90;;;;;;4967582;28;20646;-78
2022/09/23 06:48:28;;;;;;;;;;;10.00;99.90;;;;;;4968333;28;19922;-78
2022/09/23 06:50:57;;;;;;;;;;;10.10;99.90;;;;;;4967773;28;19973;-80
2022/09/23 06:53:22;;;;;;;;;;;10.10;99.90;;;;;;4966350;28;20057;-79
2022/09/23 06:55:48;;;;;;;;;;;10.20;99.90;;;;;;4967406;28;20329;-80
2022/09/23 06:58:14;;;;;;;;;;;10.20;99.90;;;;;;4968228;28;19930;-79
2022/09/23 07:00:39;;;;;;;;;;;10.30;99.90;;;;;;4963880;28;19962;-84
2022/09/23 07:03:06;;;;;;;;;;;10.30;99.90;;;;;;4967390;28;19979;-84
2022/09/23 07:05:32;;;;;;;;;;;10.30;99.90;;;;;;4973192;28;20301;-84
2022/09/23 07:07:58;;;;;;;;;;;10.40;99.90;;;;;;4983461;28;19926;-82
2022/09/23 07:10:26;;;;;;;;;;;10.50;99.90;;;;;;4967562;28;19973;-84
2022/09/23 07:12:51;;;;;;;;;;;10.50;99.90;;;;;;4966664;28;19926;-85
2022/09/23 07:15:17;;;;;;;;;;;10.50;99.90;;;;;;4982778;28;19926;-85
2022/09/23 07:17:42;;;;;;;;;;;10.60;99.90;;;;;;4968592;28;19933;-84
2022/09/23 07:20:10;;;;;;;;;;;10.60;99.90;;;;;;4968656;28;20308;-85
2022/09/23 07:22:36;;;;;;;;;;;10.60;99.90;;;;;;4968434;28;19930;-84
2022/09/23 07:25:11;;;;;;;;;;;10.60;99.90;;;;;;4967336;28;20427;-86
2022/09/23 07:27:36;;;;;;;;;;;10.70;99.90;;;;;;4967721;28;19973;-84
2022/09/23 07:30:02;;;;;;;;;;;10.70;99.90;;;;;;4965758;28;19926;-84
2022/09/23 07:32:28;;;;;;;;;;;10.70;99.90;;;;;;4967129;28;20458;-84
2022/09/23 07:34:53;;;;;;;;;;;10.80;99.90;;;;;;4967983;28;19933;-82
2022/09/23 07:37:19;;;;;;;;;;;10.80;99.90;;;;;;4949072;28;21375;-83
2022/09/23 07:39:44;;;;;;;;;;;10.80;99.90;;;;;;4968300;28;19980;-84
2022/09/23 07:42:13;;;;;;;;;;;10.90;99.90;;;;;;4986940;28;20012;-83
2022/09/23 07:44:39;;;;;;;;;;;10.90;99.90;;;;;;4970629;28;19926;-85
2022/09/23 07:47:04;;;;;;;;;;;10.90;99.90;;;;;;4970768;28;19980;-82
2022/09/23 07:49:30;;;;;;;;;;;11.00;99.90;;;;;;4985891;28;19930;-85
2022/09/23 07:51:55;;;;;;;;;;;11.00;99.90;;;;;;4970603;28;19930;-85
2022/09/23 07:54:23;;;;;;;;;;;11.10;99.90;;;;;;4986087;28;20045;-84
2022/09/23 07:56:48;;;;;;;;;;;11.10;99.90;;;;;;4970825;28;19933;-85
2022/09/23 07:59:16;;;;;;;;;;;11.20;99.90;;;;;;4971446;28;19926;-85
2022/09/23 08:01:43;;;;;;;;;;;11.20;99.90;;;;;;4969393;28;19973;-84
2022/09/23 08:04:12;;;;;;;;;;;11.30;99.90;;;;;;4971452;28;19926;-86
2022/09/23 08:06:41;;;;;;;;;;;11.30;99.90;;;;;;4971053;28;19932;-84
2022/09/23 08:09:07;;;;;;;;;;;11.40;99.90;;;;;;4969751;28;19926;-85
2022/09/23 08:11:34;;;;;;;;;;;11.40;99.90;;;;;;4971061;28;20427;-86
2022/09/23 08:13:59;;;;;;;;;;;11.50;99.90;;;;;;4970403;28;20440;-86
2022/09/23 08:16:25;;;;;;;;;;;11.60;99.90;;;;;;4985172;28;20030;-86
2022/09/23 08:18:50;;;;;;;;;;;11.70;99.90;;;;;;4969887;28;19960;-86
2022/09/23 08:21:22;;;;;;;;;;;11.70;99.90;;;;;;4971634;28;19977;-84
2022/09/23 08:23:48;;;;;;;;;;;11.70;99.90;;;;;;4971145;28;19926;-86
2022/09/23 08:26:13;;;;;;;;;;;11.80;99.90;;;;;;4969905;28;20013;-88
2022/09/23 08:28:39;;;;;;;;;;;11.80;99.90;;;;;;4969277;28;20377;-86
2022/09/23 08:31:07;;;;;;;;;;;11.90;99.90;;;;;;4969717;28;20449;-85
2022/09/23 08:33:32;;;;;;;;;;;11.90;99.90;;;;;;4970690;28;19926;-86
2022/09/23 08:36:01;;;;;;;;;;;11.90;99.90;;;;;;4971082;28;19926;-86
2022/09/23 08:38:27;;;;;;;;;;;12.00;99.90;;;;;;4971376;28;19933;-87
2022/09/23 08:40:54;;;;;;;;;;;12.00;99.90;;;;;;4970669;28;19930;-86
2022/09/23 08:43:24;;;;;;;;;;;12.00;99.90;;;;;;4970942;28;19937;-86
2022/09/23 08:45:50;;;;;;;;;;;12.10;99.90;;;;;;4968436;28;19930;-85
2022/09/23 08:48:21;;;;;;;;;;;12.10;99.90;;;;;;4970976;28;20053;-86
2022/09/23 08:50:49;;;;;;;;;;;12.10;99.90;;;;;;4969644;28;19926;-86
2022/09/23 08:53:17;;;;;;;;;;;12.10;99.90;;;;;;4969116;28;20020;-86
2022/09/23 08:55:45;;;;;;;;;;;12.20;99.90;;;;;;4970107;28;19926;-86
2022/09/23 08:58:20;;;;;;;;;;;12.20;99.90;;;;;;4985869;28;20357;-85
2022/09/23 09:01:04;;;;;;;;;;;12.30;99.90;;;;;;4983970;28;20400;-85
2022/09/23 09:03:34;;;;;;;;;;;12.20;99.90;;;;;;4970172;28;19926;-84
2022/09/23 09:06:00;;;;;;;;;;;12.30;99.90;;;;;;4985440;28;19982;-84
2022/09/23 09:08:33;;;;;;;;;;;12.30;99.90;;;;;;4971189;28;19934;-86
2022/09/23 09:10:59;;;;;;;;;;;12.40;99.90;;;;;;4971066;28;19933;-85
2022/09/23 09:13:32;;;;;;;;;;;12.40;99.90;;;;;;4970231;28;20408;-85
2022/09/23 09:16:10;;;;;;;;;;;12.40;99.90;;;;;;4968431;28;19974;-84
2022/09/23 09:18:39;;;;;;;;;;;12.50;99.90;;;;;;4984946;28;19985;-85
2022/09/23 09:21:08;;;;;;;;;;;12.60;99.90;;;;;;4970284;28;19926;-84
2022/09/23 09:23:46;;;;;;;;;;;12.60;99.90;;;;;;4969196;28;20420;-86
2022/09/23 09:26:22;;;;;;;;;;;12.60;99.90;;;;;;4935332;28;19969;-85
2022/09/23 09:28:56;;;;;;;;;;;12.70;99.90;;;;;;4968425;28;20324;-86
2022/09/23 09:31:33;;;;;;;;;;;12.70;99.90;;;;;;4951292;28;19929;-84
2022/09/23 09:34:15;;;;;;;;;;;12.80;99.90;;;;;;4968916;28;19926;-86
2022/09/23 09:36:41;;;;;;;;;;;12.80;99.90;;;;;;4968503;28;19926;-85
2022/09/23 09:39:13;;;;;;;;;;;12.80;99.90;;;;;;4969792;28;19954;-85
2022/09/23 09:41:49;;;;;;;;;;;12.90;99.90;;;;;;4970510;28;19926;-85
2022/09/23 09:44:26;;;;;;;;;;;12.90;99.90;;;;;;4969029;28;20012;-85
2022/09/23 09:47:11;;;;;;;;;;;13.00;99.90;;;;;;4969688;28;19973;-84
2022/09/23 09:49:41;;;;;;;;;;;13.10;99.90;;;;;;4951608;28;20300;-85
2022/09/23 09:52:10;;;;;;;;;;;13.10;99.90;;;;;;4968791;28;19933;-85
2022/09/23 09:54:37;;;;;;;;;;;13.20;99.90;;;;;;4952163;28;19926;-84
2022/09/23 09:57:03;;;;;;;;;;;13.20;99.90;;;;;;4969904;28;20277;-84
2022/09/23 09:59:29;;;;;;;;;;;13.20;99.90;;;;;;4969163;28;20371;-84
2022/09/23 10:02:11;;;;;;;;;;;13.20;99.90;;;;;;4969740;28;20346;-85
2022/09/23 10:04:37;;;;;;;;;;;13.30;99.90;;;;;;4969343;28;19926;-85
2022/09/23 10:07:03;;;;;;;;;;;13.30;99.90;;;;;;4969526;28;20296;-81
2022/09/23 10:09:32;;;;;;;;;;;13.30;99.90;;;;;;4969947;28;19933;-84
2022/09/23 10:12:17;;;;;;;;;;;13.40;99.90;;;;;;4968253;28;19926;-82
2022/09/23 10:14:50;;;;;;;;;;;13.40;99.90;;;;;;4966675;28;19932;-82
2022/09/23 10:17:32;;;;;;;;;;;13.40;99.90;;;;;;4969406;28;19953;-84
2022/09/23 10:20:08;;;;;;;;;;;13.50;99.90;;;;;;4969784;28;19926;-85
2022/09/23 10:22:38;;;;;;;;;;;13.50;99.90;;;;;;4968996;28;19933;-84
2022/09/23 10:25:23;;;;;;;;;;;13.50;99.90;;;;;;4968314;28;19936;-84
2022/09/23 10:27:49;;;;;;;;;;;13.60;99.90;;;;;;4968042;28;20262;-83
2022/09/23 10:30:20;;;;;;;;;;;13.50;99.90;;;;;;4967700;28;19933;-84
2022/09/23 10:32:46;;;;;;;;;;;13.60;99.90;;;;;;4967658;28;19934;-82
2022/09/23 10:35:13;;;;;;;;;;;13.60;99.90;;;;;;4982903;28;20029;-82
2022/09/23 10:37:47;;;;;;;;;;;13.70;99.90;;;;;;4966343;28;20344;-89
2022/09/23 10:48:48;;;;;;;;;;;13.70;99.90;;;;;;4967335;28;19997;-84
2022/09/23 10:51:19;;;;;;;;;;;13.80;99.90;;;;;;4966393;28;20388;-83
2022/09/23 10:53:50;;;;;;;;;;;13.80;99.90;;;;;;4967645;28;19976;-82
2022/09/23 10:56:23;;;;;;;;;;;13.80;99.90;;;;;;4967789;28;19927;-84
2022/09/23 10:59:01;;;;;;;;;;;13.80;99.90;;;;;;4948418;29;19927;-87
2022/09/23 11:01:35;;;;;;;;;;;13.80;99.90;;;;;;4947868;29;19926;-83
2022/09/23 11:04:04;;;;;;;;;;;13.80;99.90;;;;;;4965846;28;19968;-87
2022/09/23 11:07:00;;;;;;;;;;;13.90;99.90;;;;;;4963446;28;19930;-85
2022/09/23 11:09:44;;;;;;;;;;;13.90;99.90;;;;;;4964437;28;19927;-87
2022/09/23 11:12:30;;;;;;;;;;;13.90;99.90;;;;;;4963196;28;20467;-87
2022/09/23 11:14:55;;;;;;;;;;;14.00;99.90;;;;;;4951762;28;20516;-83
2022/09/23 11:17:34;;;;;;;;;;;14.10;99.90;;;;;;4955371;28;19926;-83
2022/09/23 11:20:20;;;;;;;;;;;14.00;99.90;;;;;;4964242;28;19933;-84
2022/09/23 11:22:49;;;;;;;;;;;14.10;99.90;;;;;;4957637;28;19969;-84
2022/09/23 11:25:33;;;;;;;;;;;14.20;99.90;;;;;;4970283;28;20040;-86
2022/09/23 11:28:16;;;;;;;;;;;14.20;99.90;;;;;;4971705;28;19926;-83
2022/09/23 11:30:42;;;;;;;;;;;14.30;99.90;;;;;;4969577;28;19958;-81
2022/09/23 11:33:14;;;;;;;;;;;14.30;99.90;;;;;;4971326;28;19969;-81
2022/09/23 11:35:57;;;;;;;;;;;14.30;99.90;;;;;;4971101;28;20013;-83
2022/09/23 11:38:30;;;;;;;;;;;14.30;99.90;;;;;;4971295;28;20332;-85
2022/09/23 11:41:01;;;;;;;;;;;14.30;99.90;;;;;;4970124;28;19937;-83
2022/09/23 11:43:28;;;;;;;;;;;14.40;99.90;;;;;;4971115;28;20384;-83
2022/09/23 11:46:00;;;;;;;;;;;14.40;99.90;;;;;;4969862;28;19969;-84
2022/09/23 11:48:44;;;;;;;;;;;14.30;99.90;;;;;;4986402;28;19930;-85
2022/09/23 11:51:13;;;;;;;;;;;14.30;99.90;;;;;;4971194;28;19926;-85
2022/09/23 11:53:39;;;;;;;;;;;14.30;99.90;;;;;;4971105;28;19927;-81
2022/09/23 11:56:07;;;;;;;;;;;14.30;99.90;;;;;;4969629;28;20401;-84
2022/09/23 11:58:39;;;;;;;;;;;14.30;99.90;;;;;;4968894;28;19977;-84
2022/09/23 12:01:30;;;;;;;;;;;14.40;99.90;;;;;;4970191;28;19932;-86
2022/09/23 12:04:05;;;;;;;;;;;14.40;99.90;;;;;;4952026;28;20021;-80
2022/09/23 12:06:45;;;;;;;;;;;14.40;99.90;;;;;;4968105;28;20020;-81
2022/09/23 12:09:19;;;;;;;;;;;14.40;99.90;;;;;;4970441;28;19932;-79
2022/09/23 12:11:49;;;;;;;;;;;14.40;99.90;;;;;;4958978;28;19926;-81
2022/09/23 12:14:20;;;;;;;;;;;14.40;99.90;;;;;;4951667;28;19945;-77
2022/09/23 12:16:47;;;;;;;;;;;14.50;99.90;;;;;;4955615;28;20516;-79
2022/09/23 12:19:33;;;;;;;;;;;14.50;99.90;;;;;;4955175;28;19926;-80
2022/09/23 12:22:06;;;;;;;;;;;14.60;99.90;;;;;;4951763;29;20313;-78
2022/09/23 12:24:47;;;;;;;;;;;14.60;99.90;;;;;;4973111;28;19930;-79
2022/09/23 12:27:27;;;;;;;;;;;14.60;99.90;;;;;;4957994;28;19988;-77
2022/09/23 12:29:55;;;;;;;;;;;14.60;99.90;;;;;;4967880;28;19938;-77
2022/09/23 12:32:23;;;;;;;;;;;14.60;99.90;;;;;;4985130;28;20005;-77
2022/09/23 12:34:50;;;;;;;;;;;14.60;99.90;;;;;;4969803;28;19980;-77
2022/09/23 12:37:26;;;;;;;;;;;14.60;99.90;;;;;;4970247;28;20304;-77
2022/09/23 12:39:53;;;;;;;;;;;14.70;99.90;;;;;;4983977;28;19926;-77
2022/09/23 12:42:19;;;;;;;;;;;14.70;99.90;;;;;;4954222;28;19930;-77
2022/09/23 12:44:46;;;;;;;;;;;14.70;99.90;;;;;;4954935;28;19930;-77
2022/09/23 12:47:24;;;;;;;;;;;14.70;99.90;;;;;;4972104;28;20033;-77
2022/09/23 12:50:00;;;;;;;;;;;14.70;99.90;;;;;;4955951;28;19937;-74
2022/09/23 12:52:34;;;;;;;;;;;14.70;99.90;;;;;;4955513;28;20020;-75
2022/09/23 12:55:19;;;;;;;;;;;14.70;99.90;;;;;;4965621;28;19934;-75
2022/09/23 12:57:46;;;;;;;;;;;14.70;99.90;;;;;;4965438;28;19961;-74
2022/09/23 13:00:24;;;;;;;;;;;14.70;99.90;;;;;;4955262;28;19938;-74
2022/09/23 13:08:25;;;;;;;;;;;14.70;99.90;;;;;;4956103;28;19941;-73
2022/09/23 13:10:59;;;;;;;;;;;14.70;99.90;;;;;;4953725;28;20029;-74
2022/09/23 13:13:28;;;;;;;;;;;14.70;99.90;;;;;;4953720;28;19934;-74
2022/09/23 13:15:54;;;;;;;;;;;14.70;99.90;;;;;;4953934;28;19935;-74
2022/09/23 13:18:19;;;;;;;;;;;14.70;99.90;;;;;;4956974;28;19968;-74
2022/09/23 13:20:46;;;;;;;;;;;14.70;99.90;;;;;;4952895;28;19961;-74
2022/09/23 13:23:19;;;;;;;;;;;14.70;99.90;;;;;;4956468;28;19926;-74
2022/09/23 13:25:44;;;;;;;;;;;14.60;99.90;;;;;;4955451;28;20443;-74
2022/09/23 13:28:18;;;;;;;;;;;14.60;99.90;;;;;;4954843;28;19934;-74
2022/09/23 13:30:48;;;;;;;;;;;14.60;99.90;;;;;;4952510;28;20232;-74
2022/09/23 13:33:25;;;;;;;;;;;14.60;99.90;;;;;;4954015;28;19926;-74
2022/09/23 13:35:51;;;;;;;;;;;14.60;99.90;;;;;;4950934;28;20401;-74
2022/09/23 13:38:18;;;;;;;;;;;14.60;99.90;;;;;;4949565;28;19941;-74
2022/09/23 13:40:45;;;;;;;;;;;14.60;99.90;;;;;;4957775;28;20256;-75
2022/09/23 13:43:14;;;;;;;;;;;14.60;99.90;;;;;;4952767;28;20033;-74
2022/09/23 13:45:42;;;;;;;;;;;14.60;99.90;;;;;;4948360;28;20676;-74
2022/09/23 13:48:12;;;;;;;;;;;14.60;99.90;;;;;;4954947;28;19934;-75
2022/09/23 13:50:39;;;;;;;;;;;14.70;99.90;;;;;;4952248;28;19926;-75
2022/09/23 13:53:10;;;;;;;;;;;14.70;99.90;;;;;;4955386;28;19934;-76
2022/09/23 13:55:37;;;;;;;;;;;14.70;99.90;;;;;;4954140;28;19926;-76
2022/09/23 13:58:19;;;;;;;;;;;14.70;99.90;;;;;;4952788;28;19930;-78
2022/09/23 14:00:45;;;;;;;;;;;14.80;99.90;;;;;;4965731;28;19936;-77
2022/09/23 14:03:21;;;;;;;;;;;14.80;99.90;;;;;;4968415;28;19929;-77
2022/09/23 14:05:47;;;;;;;;;;;14.80;99.90;;;;;;4968213;28;19930;-77
2022/09/23 14:08:13;;;;;;;;;;;14.80;99.90;;;;;;4967952;28;19980;-77
2022/09/23 14:10:41;;;;;;;;;;;14.80;99.90;;;;;;4967999;28;19933;-77
2022/09/23 14:13:12;;;;;;;;;;;14.80;99.90;;;;;;4968052;28;19997;-77
2022/09/23 14:15:38;;;;;;;;;;;14.80;99.90;;;;;;4966656;28;20456;-77
2022/09/23 14:18:05;;;;;;;;;;;14.80;99.90;;;;;;4967888;28;20013;-77
2022/09/23 14:20:30;;;;;;;;;;;14.90;99.90;;;;;;4967610;28;19926;-77
2022/09/23 14:23:06;;;;;;;;;;;14.90;99.90;;;;;;4968225;28;19930;-77
2022/09/23 14:25:32;;;;;;;;;;;14.90;99.90;;;;;;4967164;28;20064;-77
2022/09/23 14:27:57;;;;;;;;;;;14.90;99.90;;;;;;4968622;28;20025;-77
2022/09/23 14:30:23;;;;;;;;;;;14.90;99.90;;;;;;4966495;28;19929;-77
2022/09/23 14:32:48;;;;;;;;;;;15.00;99.90;;;;;;4967253;28;19926;-77
2022/09/23 14:35:24;;;;;;;;;;;14.90;99.90;;;;;;4967636;28;19982;-77
2022/09/23 14:40:37;;;;;;;;;;;15.00;99.90;;;;;;4966090;28;19973;-77
2022/09/23 14:43:16;;;;;;;;;;;15.00;99.90;;;;;;4967710;28;19933;-77
2022/09/23 14:45:43;;;;;;;;;;;15.00;99.90;;;;;;4966230;28;20296;-77
2022/09/23 14:48:12;;;;;;;;;;;15.00;99.90;;;;;;4967894;28;19926;-77
2022/09/23 14:50:47;;;;;;;;;;;15.00;99.90;;;;;;4966737;28;19926;-77
2022/09/23 14:53:18;;;;;;;;;;;15.00;99.90;;;;;;4967504;28;19926;-77